Time;durP1;ratioP1;P1;durP2;ratioP2;P2;SDS_P1;SDS_P2;PMS_P1;PMS_P2;Temp;Humidity;BMP_temperature;BMP_pressure;BME280_temperature;BME280_humidity;BME280_pressure;Samples;Min_cycle;Max_cycle;Signal;HPM_P1;HPM_P2
2021/03/12 00:00:37;;;;;;;2.23;1.10;;;;;;;6.51;100.00;96915.19;3738821;77;44097;-19
2021/03/12 00:05:48;;;;;;;4.93;1.10;;;;;;;6.48;100.00;96921.20;3758428;78;44029;-17
2021/03/12 00:10:55;;;;;;;2.05;1.00;;;;;;;6.47;100.00;96922.70;3753798;77;73638;-18
2021/03/12 00:16:01;;;;;;;4.53;1.17;;;;;;;6.48;100.00;96913.17;3747792;77;44464;-18
2021/03/12 00:21:11;;;;;;;5.10;1.20;;;;;;;6.42;100.00;96928.56;3747420;77;43894;-18
2021/03/12 00:26:17;;;;;;;1.77;0.90;;;;;;;6.47;100.00;96952.97;3741674;78;43373;-17
2021/03/12 00:31:23;;;;;;;2.17;0.93;;;;;;;6.36;100.00;96941.30;3740211;77;43980;-18
2021/03/12 00:36:30;;;;;;;2.50;1.00;;;;;;;6.15;100.00;96933.33;3689865;79;43676;-17
2021/03/12 00:41:36;;;;;;;2.90;1.10;;;;;;;6.02;100.00;96938.36;3743795;77;44043;-17
2021/03/12 00:46:42;;;;;;;2.70;1.13;;;;;;;5.93;100.00;96942.02;3737888;77;44412;-17
2021/03/12 00:51:50;;;;;;;4.17;1.37;;;;;;;5.89;100.00;96937.48;3687838;80;43676;-17
2021/03/12 00:56:57;;;;;;;2.40;1.10;;;;;;;5.97;100.00;96932.16;3726568;78;26388;-18
2021/03/12 01:02:04;;;;;;;3.70;1.03;;;;;;;5.81;100.00;96947.70;3737842;77;43282;-18
2021/03/12 01:07:12;;;;;;;2.10;1.30;;;;;;;5.75;100.00;96945.69;3742822;78;73415;-17
2021/03/12 01:12:19;;;;;;;3.27;1.40;;;;;;;5.82;100.00;96960.04;3687854;80;43678;-17
2021/03/12 01:17:25;;;;;;;5.00;1.20;;;;;;;5.89;100.00;96947.36;3743517;78;43631;-17
2021/03/12 01:22:31;;;;;;;2.90;1.00;;;;;;;5.97;99.40;96942.00;3724974;77;43388;-17
2021/03/12 01:27:39;;;;;;;1.93;1.00;;;;;;;6.03;98.22;96944.04;3725457;78;26419;-16
2021/03/12 01:32:47;;;;;;;6.03;0.87;;;;;;;6.05;96.70;96940.70;3718265;79;26391;-17
2021/03/12 01:37:55;;;;;;;5.17;1.00;;;;;;;6.14;94.59;96950.38;3591606;80;44505;-17
2021/03/12 01:43:02;;;;;;;2.73;0.97;;;;;;;6.26;91.38;96964.73;3729523;79;43024;-17
2021/03/12 01:48:12;;;;;;;1.90;0.90;;;;;;;6.31;93.20;96965.03;3730849;78;43688;-38
2021/03/12 01:53:21;;;;;;;3.93;1.00;;;;;;;6.10;97.60;96967.75;3717002;77;44067;-18
2021/03/12 01:58:29;;;;;;;2.40;0.93;;;;;;;6.10;99.71;96978.95;3616151;81;43994;-17
2021/03/12 02:03:37;;;;;;;1.33;0.90;;;;;;;5.81;100.00;96981.59;3742878;77;26745;-18
2021/03/12 02:08:44;;;;;;;1.57;0.80;;;;;;;5.53;100.00;96968.06;3734023;78;26889;-17
2021/03/12 02:13:56;;;;;;;2.67;0.93;;;;;;;5.36;100.00;96991.72;3750383;77;26439;-18
2021/03/12 02:19:07;;;;;;;1.63;0.70;;;;;;;5.21;100.00;97000.38;3738881;78;43449;-19
2021/03/12 02:24:18;;;;;;;2.43;0.90;;;;;;;5.19;100.00;96989.51;3735531;79;44020;-18
2021/03/12 02:29:25;;;;;;;2.70;0.70;;;;;;;5.07;100.00;96993.81;3690936;79;44043;-17
2021/03/12 02:34:35;;;;;;;3.70;1.00;;;;;;;5.06;100.00;97006.00;3740723;79;45147;-18
2021/03/12 02:39:48;;;;;;;1.83;0.80;;;;;;;5.10;100.00;97016.70;3736373;78;26330;-17
2021/03/12 02:44:56;;;;;;;1.63;0.80;;;;;;;5.01;100.00;97028.31;3687131;80;44260;-17
2021/03/12 02:50:05;;;;;;;2.13;0.70;;;;;;;5.11;100.00;97033.54;3738669;77;44141;-26
2021/03/12 02:55:14;;;;;;;1.13;0.80;;;;;;;5.09;100.00;97043.87;3735962;77;43975;-17
2021/03/12 03:00:24;;;;;;;1.10;0.70;;;;;;;5.23;100.00;97055.77;3653209;79;26972;-19
2021/03/12 03:05:41;;;;;;;3.23;0.90;;;;;;;5.28;100.00;97043.30;3732899;78;26394;-19
2021/03/12 03:10:48;;;;;;;4.07;1.10;;;;;;;5.33;100.00;97053.48;3721347;79;44024;-17
2021/03/12 03:15:55;;;;;;;2.00;0.60;;;;;;;5.19;100.00;97065.11;3654631;79;43967;-19
2021/03/12 03:21:03;;;;;;;2.03;1.27;;;;;;;5.04;100.00;97078.23;3721940;77;44467;-18
2021/03/12 03:26:11;;;;;;;1.93;0.90;;;;;;;4.93;100.00;97083.34;3718605;78;44003;-17
2021/03/12 03:31:19;;;;;;;0.87;0.67;;;;;;;4.80;100.00;97086.11;3701139;79;44038;-17
2021/03/12 03:36:26;;;;;;;1.80;0.67;;;;;;;4.70;100.00;97106.21;3587319;80;43356;-18
2021/03/12 03:41:34;;;;;;;1.43;0.83;;;;;;;4.69;100.00;97137.88;3713329;78;43309;-19
2021/03/12 03:46:46;;;;;;;1.40;0.60;;;;;;;4.75;100.00;97126.09;3727221;78;43970;-18
2021/03/12 03:51:54;;;;;;;0.90;0.53;;;;;;;4.67;100.00;97122.05;3735864;79;43464;-17
2021/03/12 03:57:04;;;;;;;1.10;0.60;;;;;;;4.66;100.00;97127.03;3688070;79;26394;-18
2021/03/12 04:02:13;;;;;;;1.10;1.00;;;;;;;4.65;100.00;97128.50;3732758;78;43193;-17
2021/03/12 04:07:23;;;;;;;0.80;0.60;;;;;;;4.59;100.00;97161.49;3700129;79;43316;-16
2021/03/12 04:12:31;;;;;;;0.80;0.50;;;;;;;4.59;100.00;97153.49;3706904;79;26379;-16
2021/03/12 04:17:40;;;;;;;1.77;0.60;;;;;;;4.59;100.00;97149.48;3683175;79;44537;-17
2021/03/12 04:22:48;;;;;;;0.93;0.60;;;;;;;4.61;100.00;97159.52;3692234;79;43701;-17
2021/03/12 04:27:54;;;;;;;0.73;0.60;;;;;;;4.59;100.00;97158.83;3688126;79;44628;-16
2021/03/12 04:33:03;;;;;;;2.40;0.87;;;;;;;4.53;100.00;97162.09;3696455;79;43612;-16
2021/03/12 04:38:15;;;;;;;2.10;0.70;;;;;;;4.59;100.00;97160.16;3685125;79;26864;-17
2021/03/12 04:43:23;;;;;;;2.00;0.60;;;;;;;4.61;100.00;97162.66;3691833;79;43469;-17
2021/03/12 04:48:31;;;;;;;1.40;0.67;;;;;;;4.55;100.00;97181.45;3693630;79;43495;-22
2021/03/12 04:53:40;;;;;;;1.50;0.60;;;;;;;4.52;100.00;97215.12;3690949;79;44124;-18
2021/03/12 04:58:47;;;;;;;1.40;0.90;;;;;;;4.47;100.00;97210.73;3667313;79;44122;-19
2021/03/12 05:03:56;;;;;;;2.43;0.77;;;;;;;4.52;100.00;97198.27;3682282;78;42654;-19
2021/03/12 05:09:07;;;;;;;2.07;0.80;;;;;;;4.44;100.00;97205.69;3665353;79;44042;-19
2021/03/12 05:14:16;;;;;;;2.80;0.80;;;;;;;4.26;100.00;97216.34;3685458;78;27774;-18
2021/03/12 05:19:24;;;;;;;1.77;0.80;;;;;;;4.31;100.00;97221.57;3677254;79;43348;-19
2021/03/12 05:24:32;;;;;;;2.40;0.80;;;;;;;4.39;100.00;97244.81;3675033;79;26442;-19
2021/03/12 05:29:38;;;;;;;1.47;0.90;;;;;;;4.41;100.00;97242.02;3664175;79;43686;-18
2021/03/12 05:34:45;;;;;;;2.10;0.70;;;;;;;4.32;100.00;97273.08;3683892;79;43372;-18
2021/03/12 05:39:53;;;;;;;1.33;0.77;;;;;;;4.37;100.00;97269.96;3662216;79;26399;-18
2021/03/12 05:45:03;;;;;;;3.90;0.83;;;;;;;4.36;100.00;97273.11;3665346;79;43562;-18
2021/03/12 05:50:12;;;;;;;2.63;0.97;;;;;;;4.34;100.00;97291.11;3660351;79;26447;-18
2021/03/12 05:55:19;;;;;;;4.53;0.90;;;;;;;4.46;99.10;97303.72;3707485;79;43674;-18
2021/03/12 06:00:27;;;;;;;4.30;0.90;;;;;;;4.49;98.84;97298.09;3700684;78;43085;-18
2021/03/12 06:05:34;;;;;;;3.07;0.90;;;;;;;4.63;95.71;97304.25;3702422;79;42746;-19
2021/03/12 06:10:41;;;;;;;3.03;1.00;;;;;;;4.67;97.65;97310.59;3694861;79;44019;-19
2021/03/12 06:15:49;;;;;;;2.80;0.90;;;;;;;4.65;95.57;97308.56;3712743;79;26405;-17
2021/03/12 06:20:57;;;;;;;2.57;0.87;;;;;;;4.85;92.53;97324.80;3695677;78;811616;-18
2021/03/12 06:26:06;;;;;;;3.07;0.90;;;;;;;4.84;91.16;97333.80;3671276;79;44006;-18
2021/03/12 06:31:30;;;;;;;1.93;1.00;;;;;;;4.96;89.76;97353.58;3740724;77;26374;-18
2021/03/12 06:36:39;;;;;;;1.17;0.80;;;;;;;4.99;90.70;97350.62;3649236;80;26401;-18
2021/03/12 06:41:49;;;;;;;2.80;0.87;;;;;;;4.99;90.50;97366.63;3752077;77;26426;-18
2021/03/12 06:46:59;;;;;;;1.40;0.80;;;;;;;5.03;89.67;97369.32;3742474;77;26462;-18
2021/03/12 06:52:06;;;;;;;2.20;1.00;;;;;;;5.08;87.71;97390.56;3753704;77;44113;-18
2021/03/12 06:57:22;;;;;;;3.87;1.00;;;;;;;5.27;84.46;97391.90;3739468;77;26385;-18
2021/03/12 07:02:33;;;;;;;4.23;0.87;;;;;;;5.28;86.41;97409.13;3738449;78;27447;-18
2021/03/12 07:07:43;;;;;;;2.30;1.13;;;;;;;5.25;87.33;97418.26;3663695;79;26754;-19
2021/03/12 07:12:55;;;;;;;2.33;0.77;;;;;;;5.33;84.15;97420.68;3749323;77;27750;-18
2021/03/12 07:18:03;;;;;;;1.90;0.80;;;;;;;5.44;84.04;97431.13;3663307;79;26383;-18
2021/03/12 07:23:11;;;;;;;1.87;1.00;;;;;;;5.59;84.64;97438.58;3750923;78;43276;-18
2021/03/12 07:28:20;;;;;;;2.70;1.00;;;;;;;5.62;82.81;97430.27;3757747;77;26423;-18
2021/03/12 07:33:29;;;;;;;3.07;1.00;;;;;;;5.66;82.67;97441.00;3656049;80;26389;-20
2021/03/12 07:38:37;;;;;;;2.10;0.90;;;;;;;5.63;80.71;97470.20;3763239;78;44182;-20
2021/03/12 07:43:46;;;;;;;3.93;1.13;;;;;;;5.66;84.59;97457.03;3735383;77;26358;-19
2021/03/12 07:49:36;;;;;;;3.07;1.00;;;;;;;5.59;81.21;97458.14;3661759;79;26477;-20
2021/03/12 07:54:51;;;;;;;3.10;0.93;;;;;;;5.75;82.64;97478.81;3732807;77;26645;-19
2021/03/12 08:00:04;;;;;;;2.00;1.00;;;;;;;5.79;80.42;97483.34;3659143;79;26445;-19
2021/03/12 08:05:40;;;;;;;2.43;1.17;;;;;;;5.82;79.82;97480.38;3729978;78;74166;-16
2021/03/12 08:10:55;;;;;;;2.95;0.90;;;;;;;5.89;80.44;97500.64;3666161;80;26467;-18
2021/03/12 08:16:08;;;;;;;4.30;1.00;;;;;;;5.84;76.38;97497.93;3665509;80;43694;-17
2021/03/12 08:21:34;;;;;;;2.93;0.97;;;;;;;5.89;73.06;97509.49;3665561;79;26837;-17
2021/03/12 08:26:55;;;;;;;2.63;1.00;;;;;;;5.99;76.28;97521.45;3665901;79;26919;-17
2021/03/12 08:32:26;;;;;;;3.23;1.10;;;;;;;5.94;76.63;97518.41;3649937;79;26664;-17
2021/03/12 08:37:41;;;;;;;3.10;1.10;;;;;;;5.95;77.21;97528.94;3593336;82;26403;-17
2021/03/12 08:43:04;;;;;;;3.60;0.97;;;;;;;6.06;74.18;97523.03;3586935;80;26416;-16
2021/03/12 08:48:30;;;;;;;3.13;0.90;;;;;;;6.15;76.14;97533.66;3591105;82;26929;-16
2021/03/12 08:53:39;;;;;;;2.30;1.00;;;;;;;6.22;75.34;97531.20;3591698;82;43104;-15
2021/03/12 08:58:46;;;;;;;2.55;0.80;;;;;;;6.31;71.07;97538.77;3580894;82;73343;-16
2021/03/12 09:03:55;;;;;;;4.73;2.03;;;;;;;6.39;73.81;97524.13;3531149;83;26822;-16
2021/03/12 09:09:18;;;;;;;6.53;1.20;;;;;;;6.32;76.68;97545.80;3623374;81;26405;-16
2021/03/12 09:14:41;;;;;;;5.87;1.00;;;;;;;6.27;76.00;97545.44;3576728;82;26593;-15
2021/03/12 09:19:48;;;;;;;2.10;1.00;;;;;;;6.16;74.99;97547.37;3632972;80;43011;-16
2021/03/12 09:24:58;;;;;;;2.20;1.00;;;;;;;6.19;75.21;97549.37;3627114;80;27177;-15
2021/03/12 09:30:26;;;;;;;1.67;0.87;;;;;;;6.21;74.96;97545.56;3616216;81;26886;-16
2021/03/12 09:35:39;;;;;;;3.47;1.00;;;;;;;6.20;73.83;97550.56;3683670;80;26930;-15
2021/03/12 09:40:47;;;;;;;4.67;0.97;;;;;;;6.32;74.31;97547.13;3676250;80;43694;-16
2021/03/12 09:45:55;;;;;;;1.90;0.93;;;;;;;6.39;74.69;97559.39;3659335;80;26677;-16
2021/03/12 09:51:05;;;;;;;3.50;0.90;;;;;;;6.46;75.97;97553.77;3658207;79;27730;-17
2021/03/12 09:56:15;;;;;;;3.43;1.30;;;;;;;6.70;75.70;97563.79;3613232;81;44861;-17
2021/03/12 10:01:22;;;;;;;1.92;0.90;;;;;;;6.67;69.04;97576.14;3626904;80;73300;-17
2021/03/12 10:06:30;;;;;;;1.57;0.80;;;;;;;6.81;65.97;97556.00;3622239;80;26511;-16
2021/03/12 10:11:42;;;;;;;5.03;1.00;;;;;;;7.05;63.07;97548.58;3627184;80;44056;-17
2021/03/12 10:17:06;;;;;;;3.20;1.00;;;;;;;7.52;63.74;97569.17;3630039;81;26750;-16
2021/03/12 10:22:20;;;;;;;5.83;0.90;;;;;;;7.75;64.23;97576.13;3665495;80;43306;-16
2021/03/12 10:27:28;;;;;;;2.17;0.93;;;;;;;7.57;59.81;97534.70;3693078;80;44011;-16
2021/03/12 10:32:39;;;;;;;3.47;1.10;;;;;;;7.67;60.13;97542.57;3664097;80;43539;-17
2021/03/12 10:37:46;;;;;;;2.83;0.90;;;;;;;7.80;59.48;97558.20;3656565;80;43629;-16
2021/03/12 10:42:53;;;;;;;4.60;1.10;;;;;;;7.63;60.93;97544.75;3646357;79;43969;-17
2021/03/12 10:48:06;;;;;;;3.83;1.03;;;;;;;7.56;60.17;97535.18;3667870;80;43682;-16
2021/03/12 10:53:16;;;;;;;2.53;0.90;;;;;;;7.81;57.58;97547.30;3663236;79;44468;-16
2021/03/12 10:58:28;;;;;;;2.93;0.80;;;;;;;8.25;60.04;97526.03;3661897;80;43999;-17
2021/03/12 11:03:34;;;;;;;4.00;0.80;;;;;;;8.35;54.80;97511.07;3667726;80;44031;-16
2021/03/12 11:08:42;;;;;;;1.72;0.75;;;;;;;8.27;52.15;97552.68;3618374;80;43483;-16
2021/03/12 11:13:49;;;;;;;1.37;0.80;;;;;;;8.14;51.60;97516.46;3532617;82;42998;-17
2021/03/12 11:18:55;;;;;;;2.02;0.70;;;;;;;8.26;54.46;97502.22;3545632;83;43209;-17
2021/03/12 11:24:04;;;;;;;2.83;0.70;;;;;;;8.30;55.54;97521.49;3561135;82;43679;-17
2021/03/12 11:29:09;;;;;;;4.40;0.70;;;;;;;8.26;56.75;97522.34;3537601;83;43467;-18
2021/03/12 11:34:15;;;;;;;2.62;0.90;;;;;;;8.29;55.81;97514.45;3532975;82;43387;-17
2021/03/12 11:39:23;;;;;;;2.37;0.97;;;;;;;8.08;59.87;97506.42;3540005;83;44049;-16
2021/03/12 11:44:31;;;;;;;2.12;0.70;;;;;;;8.04;60.99;97503.73;3536228;83;43640;-16
2021/03/12 11:49:37;;;;;;;2.10;0.70;;;;;;;7.99;60.42;97506.09;3538009;82;43716;-16
2021/03/12 11:54:43;;;;;;;2.07;0.83;;;;;;;8.13;61.48;97501.89;3537976;83;43436;-16
2021/03/12 11:59:49;;;;;;;2.40;0.90;;;;;;;8.04;59.31;97527.05;3537510;83;43708;-17
2021/03/12 12:04:55;;;;;;;1.77;0.80;;;;;;;8.14;59.46;97511.62;3534750;83;43651;-16
2021/03/12 12:14:59;;;;;;;3.22;1.20;;;;;;;8.23;62.57;97500.38;3964093;72;73952;-16
2021/03/12 12:20:07;;;;;;;3.65;1.10;;;;;;;7.97;60.15;97504.08;3923984;74;42696;-18
2021/03/12 12:25:15;;;;;;;2.67;1.10;;;;;;;8.14;62.64;97494.17;3936449;74;44001;-18
2021/03/12 12:30:22;;;;;;;2.30;0.90;;;;;;;8.14;60.53;97516.98;3913094;74;43724;-16
2021/03/12 12:35:28;;;;;;;2.03;1.00;;;;;;;8.15;61.57;97487.80;3931543;75;73302;-16
2021/03/12 12:40:34;;;;;;;4.70;0.90;;;;;;;8.11;58.27;97480.61;3924550;74;44024;-17
2021/03/12 12:45:40;;;;;;;2.58;1.10;;;;;;;8.20;57.71;97476.05;3915429;75;43766;-17
2021/03/12 12:50:48;;;;;;;3.43;0.90;;;;;;;8.42;59.93;97468.29;3918479;74;43721;-17
2021/03/12 12:55:59;;;;;;;3.17;0.87;;;;;;;8.56;57.96;97465.45;3918529;75;43292;-18
2021/03/12 13:01:06;;;;;;;3.58;1.00;;;;;;;8.46;54.61;97467.80;3919009;74;43700;-18
2021/03/12 13:06:13;;;;;;;4.72;1.10;;;;;;;8.56;53.61;97451.52;3925277;74;43329;-19
2021/03/12 13:11:21;;;;;;;2.27;0.82;;;;;;;8.54;55.74;97470.98;3919172;75;43686;-18
2021/03/12 13:16:27;;;;;;;1.82;1.00;;;;;;;8.54;56.42;97458.08;3931861;75;44093;-18
2021/03/12 13:21:33;;;;;;;2.92;0.90;;;;;;;8.40;54.80;97430.08;3903312;74;43682;-19
2021/03/12 13:26:42;;;;;;;2.45;1.00;;;;;;;8.54;55.51;97436.08;3913134;75;43414;-19
2021/03/12 13:31:48;;;;;;;5.10;1.17;;;;;;;8.49;56.12;97419.67;3916367;75;43409;-18
2021/03/12 13:36:58;;;;;;;3.02;0.75;;;;;;;8.60;54.74;97416.61;3915678;74;43694;-18
2021/03/12 13:42:07;;;;;;;1.60;0.98;;;;;;;8.60;53.50;97406.36;3931179;74;44656;-19
2021/03/12 13:47:15;;;;;;;1.30;0.70;;;;;;;8.96;52.48;97402.36;3922555;75;44066;-18
2021/03/12 13:52:23;;;;;;;1.92;0.80;;;;;;;8.91;52.94;97410.42;3931184;74;43464;-17
2021/03/12 13:57:30;;;;;;;2.70;1.10;;;;;;;8.61;51.98;97412.92;3930126;74;44250;-16
2021/03/12 14:02:36;;;;;;;1.37;0.80;;;;;;;9.11;53.75;97400.59;3908727;75;43675;-17
2021/03/12 14:07:44;;;;;;;2.00;0.90;;;;;;;8.92;51.24;97405.38;3926875;75;44168;-18
2021/03/12 14:12:49;;;;;;;2.50;0.80;;;;;;;9.45;53.11;97403.39;3916368;74;43347;-17
2021/03/12 14:18:13;;;;;;;1.92;0.90;;;;;;;8.98;52.56;97403.02;3926849;74;26419;-17
2021/03/12 14:23:20;;;;;;;2.52;0.90;;;;;;;9.01;53.21;97390.55;3928390;75;42904;-17
2021/03/12 14:28:28;;;;;;;1.60;0.82;;;;;;;9.63;49.86;97390.14;3924210;74;44031;-17
2021/03/12 14:33:34;;;;;;;2.05;0.80;;;;;;;9.33;48.11;97391.38;3921261;75;42683;-18
2021/03/12 14:38:41;;;;;;;1.65;0.80;;;;;;;9.06;49.77;97384.98;3923020;75;43477;-17
2021/03/12 14:43:47;;;;;;;2.50;1.00;;;;;;;9.05;49.78;97377.97;3915093;74;42776;-18
2021/03/12 14:48:58;;;;;;;1.00;0.70;;;;;;;8.94;48.90;97369.79;3925188;74;26360;-18
2021/03/12 14:54:08;;;;;;;1.77;1.05;;;;;;;8.99;50.40;97357.17;3905721;75;43973;-18
2021/03/12 14:59:14;;;;;;;2.30;0.82;;;;;;;8.89;50.97;97354.70;3924758;74;44015;-18
2021/03/12 15:04:20;;;;;;;1.90;0.90;;;;;;;9.19;49.64;97349.97;3926262;74;44107;-18
2021/03/12 15:09:26;;;;;;;2.67;1.00;;;;;;;9.01;48.93;97334.14;3910322;75;43294;-18
2021/03/12 15:14:32;;;;;;;2.02;1.05;;;;;;;8.88;49.06;97327.51;3903524;75;43983;-18
2021/03/12 15:19:39;;;;;;;2.58;1.00;;;;;;;8.93;49.79;97345.28;3898455;74;43342;-17
2021/03/12 15:24:46;;;;;;;2.67;0.90;;;;;;;8.70;49.98;97324.27;3887380;74;43667;-19
2021/03/12 15:29:53;;;;;;;2.72;0.93;;;;;;;8.78;50.44;97318.36;3892958;74;43494;-20
2021/03/12 15:35:00;;;;;;;2.52;1.02;;;;;;;8.84;51.54;97320.84;3900889;74;43694;-18
2021/03/12 15:40:10;;;;;;;2.10;0.80;;;;;;;9.52;49.44;97311.58;3901037;75;43681;-17
2021/03/12 15:45:18;;;;;;;5.22;1.17;;;;;;;9.74;47.96;97302.30;3913357;75;44024;-18
2021/03/12 15:50:24;;;;;;;3.20;1.10;;;;;;;9.52;46.97;97290.08;3901787;75;43251;-17
2021/03/12 15:55:31;;;;;;;4.22;1.00;;;;;;;9.39;48.89;97289.85;3905307;74;43318;-17
2021/03/12 16:00:45;;;;;;;3.15;0.90;;;;;;;9.04;48.58;97300.22;3893283;74;26945;-18
2021/03/12 16:05:54;;;;;;;2.20;0.90;;;;;;;8.92;50.32;97291.23;3915680;74;44063;-18
2021/03/12 16:11:01;;;;;;;2.02;1.00;;;;;;;8.98;50.13;97281.63;3882026;74;43725;-17
2021/03/12 16:16:09;;;;;;;3.62;0.90;;;;;;;8.91;50.17;97284.19;3932343;75;43984;-17
2021/03/12 16:21:26;;;;;;;3.00;1.02;;;;;;;9.13;49.11;97279.50;3909353;75;26424;-17
2021/03/12 16:26:43;;;;;;;3.15;1.20;;;;;;;9.37;49.43;97285.16;3882503;75;26805;-18
2021/03/12 16:31:50;;;;;;;2.80;1.10;;;;;;;9.11;50.41;97289.09;3898357;75;45044;-17
2021/03/12 16:36:56;;;;;;;4.33;0.90;;;;;;;8.90;51.67;97281.69;3926194;74;43686;-18
2021/03/12 16:42:03;;;;;;;3.42;0.98;;;;;;;8.41;51.74;97284.97;3942208;74;44509;-18
2021/03/12 16:47:10;;;;;;;2.90;0.90;;;;;;;8.20;52.66;97288.76;3932367;75;44170;-17
2021/03/12 16:52:19;;;;;;;2.70;0.90;;;;;;;7.99;53.21;97308.96;3935603;75;43660;-18
2021/03/12 16:57:25;;;;;;;2.83;1.00;;;;;;;8.06;54.79;97290.30;3929164;75;44079;-18
2021/03/12 17:02:32;;;;;;;2.33;1.00;;;;;;;7.88;55.71;97283.34;3947093;75;43654;-18
2021/03/12 17:07:40;;;;;;;5.30;1.35;;;;;;;7.68;56.54;97293.11;3924147;74;44247;-18
2021/03/12 17:12:46;;;;;;;4.22;0.80;;;;;;;7.59;57.05;97286.59;3926176;74;44093;-17
2021/03/12 17:17:53;;;;;;;2.50;0.90;;;;;;;7.47;57.76;97290.11;3725088;77;44189;-17
2021/03/12 17:22:59;;;;;;;2.47;1.05;;;;;;;7.33;58.84;97291.16;3659700;79;43139;-17
2021/03/12 17:28:07;;;;;;;3.10;1.40;;;;;;;7.16;60.88;97298.84;3657777;80;44041;-18
2021/03/12 17:33:13;;;;;;;3.50;1.10;;;;;;;7.10;61.51;97290.98;3661846;79;73429;-17
2021/03/12 17:38:19;;;;;;;3.52;1.40;;;;;;;7.01;62.67;97296.00;3659825;79;43325;-18
2021/03/12 17:43:25;;;;;;;4.43;1.30;;;;;;;6.96;64.28;97284.45;3666646;79;44059;-19
2021/03/12 17:48:35;;;;;;;4.70;1.50;;;;;;;6.91;63.76;97278.27;3664130;79;73289;-18
2021/03/12 17:53:43;;;;;;;2.47;1.30;;;;;;;6.84;64.44;97275.08;3665748;79;44067;-16
2021/03/12 17:58:48;;;;;;;7.03;1.40;;;;;;;6.81;64.73;97277.59;3661228;79;43649;-17
2021/03/12 18:03:55;;;;;;;4.72;1.70;;;;;;;6.69;65.84;97264.19;3662647;79;73681;-17
2021/03/12 18:09:01;;;;;;;8.70;2.73;;;;;;;6.63;66.98;97261.67;3660995;79;44011;-17
2021/03/12 18:14:07;;;;;;;3.80;2.10;;;;;;;6.55;67.62;97248.26;3660942;78;44518;-17
2021/03/12 18:19:13;;;;;;;5.80;1.90;;;;;;;6.45;68.78;97244.42;3686998;78;43673;-16
2021/03/12 18:24:19;;;;;;;4.90;1.85;;;;;;;6.35;69.58;97252.58;3692766;79;74364;-16
2021/03/12 18:29:25;;;;;;;6.17;1.97;;;;;;;6.37;69.84;97247.91;3695722;79;44588;-17
2021/03/12 18:34:31;;;;;;;4.33;1.83;;;;;;;6.33;71.06;97223.81;3690910;80;44006;-17
2021/03/12 18:39:38;;;;;;;4.03;2.00;;;;;;;6.24;71.30;97204.23;3694585;79;44109;-17
2021/03/12 18:44:45;;;;;;;3.97;1.77;;;;;;;6.23;71.41;97198.58;3680720;78;43644;-16
2021/03/12 18:49:52;;;;;;;3.77;1.37;;;;;;;6.18;72.02;97172.81;3688394;78;44098;-16
2021/03/12 18:55:00;;;;;;;4.70;1.57;;;;;;;6.13;73.05;97181.81;3687965;78;73788;-17
2021/03/12 19:00:14;;;;;;;6.67;1.40;;;;;;;6.06;73.88;97170.93;3692158;79;43977;-17
2021/03/12 19:05:19;;;;;;;4.63;1.90;;;;;;;6.12;73.69;97162.75;3680725;79;44125;-18
2021/03/12 19:10:24;;;;;;;4.83;1.40;;;;;;;6.14;73.15;97130.86;3612602;80;43411;-17
2021/03/12 19:15:31;;;;;;;4.63;1.70;;;;;;;6.23;72.53;97141.55;3681533;78;43296;-16
2021/03/12 19:20:37;;;;;;;8.70;2.17;;;;;;;6.22;73.10;97142.55;3695128;79;43337;-16
2021/03/12 19:25:43;;;;;;;4.53;1.60;;;;;;;6.16;73.72;97128.86;3693622;78;44107;-16
2021/03/12 19:30:49;;;;;;;8.87;2.07;;;;;;;6.17;73.49;97123.82;3687877;78;44092;-17
2021/03/12 19:35:55;;;;;;;3.30;1.50;;;;;;;6.13;74.29;97113.63;3684707;80;43669;-17
2021/03/12 19:41:01;;;;;;;5.00;1.57;;;;;;;6.15;74.44;97103.61;3693779;78;44516;-17
2021/03/12 19:46:07;;;;;;;5.30;1.40;;;;;;;6.16;74.21;97091.91;3694923;78;44874;-16
2021/03/12 19:51:13;;;;;;;6.03;1.57;;;;;;;6.18;74.75;97096.59;3696128;78;44034;-17
2021/03/12 19:56:19;;;;;;;5.93;1.77;;;;;;;6.16;75.42;97098.11;3695327;78;42824;-17
2021/03/12 20:01:25;;;;;;;5.80;1.80;;;;;;;6.11;75.68;97090.25;3725268;78;43444;-17
2021/03/12 20:06:33;;;;;;;3.70;1.30;;;;;;;6.09;75.70;97090.40;3730883;78;44211;-16
2021/03/12 20:11:39;;;;;;;7.17;1.90;;;;;;;6.09;75.59;97105.11;3713847;80;44030;-17
2021/03/12 20:16:46;;;;;;;5.80;1.73;;;;;;;6.08;76.05;97093.25;3732169;77;43369;-17
2021/03/12 20:21:55;;;;;;;2.47;1.40;;;;;;;5.99;76.47;97078.55;3733536;78;44112;-18
2021/03/12 20:27:02;;;;;;;5.40;1.47;;;;;;;5.99;76.32;97069.64;3677548;80;43292;-18
2021/03/12 20:32:09;;;;;;;4.27;1.70;;;;;;;5.98;77.21;97084.86;3755308;77;43686;-17
2021/03/12 20:37:16;;;;;;;5.47;1.33;;;;;;;5.99;77.19;97062.96;3734083;78;44006;-16
2021/03/12 20:42:23;;;;;;;6.87;1.43;;;;;;;6.07;76.55;97067.00;3681357;80;43455;-17
2021/03/12 20:47:30;;;;;;;5.67;1.40;;;;;;;6.08;76.68;97067.34;3760932;79;44429;-17
2021/03/12 20:52:37;;;;;;;5.63;1.60;;;;;;;6.25;74.90;97078.05;3740682;79;73323;-16
2021/03/12 20:57:44;;;;;;;5.77;1.43;;;;;;;6.28;75.23;97068.36;3742986;78;43441;-19
2021/03/12 21:02:50;;;;;;;4.00;1.37;;;;;;;6.32;74.46;97075.88;3742930;78;44473;-18
2021/03/12 21:07:58;;;;;;;3.60;1.43;;;;;;;6.32;76.24;97067.00;3743456;79;43352;-19
2021/03/12 21:13:07;;;;;;;5.40;1.60;;;;;;;6.28;77.05;97069.70;3681176;80;44038;-19
2021/03/12 21:18:13;;;;;;;2.13;1.00;;;;;;;6.17;77.88;97050.28;3741689;79;44414;-18
2021/03/12 21:23:21;;;;;;;4.13;1.43;;;;;;;6.16;78.50;97054.47;3663264;81;43374;-19
2021/03/12 21:28:29;;;;;;;5.43;2.03;;;;;;;6.27;77.80;97060.00;3668614;81;43480;-19
2021/03/12 21:33:35;;;;;;;5.57;1.30;;;;;;;6.43;77.22;97063.16;3655943;81;44038;-18
2021/03/12 21:38:41;;;;;;;3.87;1.33;;;;;;;6.59;76.31;97067.14;3663838;81;73316;-18
2021/03/12 21:43:48;;;;;;;6.03;1.20;;;;;;;6.82;74.99;97073.64;3664627;81;43313;-19
2021/03/12 21:48:54;;;;;;;1.70;1.10;;;;;;;6.91;75.31;97074.80;3664705;81;44073;-19
2021/03/12 21:54:01;;;;;;;5.47;1.30;;;;;;;7.01;75.33;97093.32;3664799;81;43678;-18
2021/03/12 21:59:09;;;;;;;1.53;0.50;;;;;;;7.04;76.81;97153.23;3663667;81;43381;-20
2021/03/12 22:04:16;;;;;;;1.30;0.60;;;;;;;3.63;100.00;97176.20;3664488;81;44284;-21
2021/03/12 22:09:22;;;;;;;0.60;0.53;;;;;;;3.18;100.00;97170.31;3664702;81;43295;-19
2021/03/12 22:14:29;;;;;;;1.23;0.40;;;;;;;3.06;100.00;97179.80;3664607;81;43721;-22
2021/03/12 22:19:35;;;;;;;0.47;0.47;;;;;;;3.00;100.00;97184.36;3617142;81;43435;-20
2021/03/12 22:24:41;;;;;;;0.97;0.70;;;;;;;2.92;100.00;97183.77;3643497;81;44060;-22
2021/03/12 22:29:48;;;;;;;1.63;0.80;;;;;;;2.92;100.00;97191.75;3657927;79;43380;-22
2021/03/12 22:34:54;;;;;;;1.40;0.80;;;;;;;2.97;100.00;97183.34;3658889;80;44037;-20
2021/03/12 22:40:01;;;;;;;1.50;0.80;;;;;;;2.99;100.00;97185.37;3658493;81;44055;-21
2021/03/12 22:45:11;;;;;;;1.97;1.03;;;;;;;3.08;100.00;97155.22;3659151;81;44982;-22
2021/03/12 22:50:21;;;;;;;2.23;1.10;;;;;;;3.11;100.00;97121.33;3659214;80;43195;-22
2021/03/12 22:55:27;;;;;;;2.40;1.23;;;;;;;3.05;100.00;97134.73;3659139;80;43696;-20
2021/03/12 23:00:36;;;;;;;2.40;1.20;;;;;;;3.11;100.00;97139.95;3659107;79;44587;-20
2021/03/12 23:05:47;;;;;;;2.37;1.23;;;;;;;3.41;100.00;97143.31;3658737;80;43145;-21
2021/03/12 23:10:55;;;;;;;4.00;1.20;;;;;;;3.49;100.00;97134.09;3658127;80;43357;-21
2021/03/12 23:16:02;;;;;;;5.27;1.30;;;;;;;3.52;100.00;97126.67;3656504;81;44039;-19
2021/03/12 23:21:10;;;;;;;3.50;1.30;;;;;;;3.78;100.00;97139.75;3734782;78;44048;-19
2021/03/12 23:26:19;;;;;;;1.87;1.17;;;;;;;3.98;100.00;97137.80;3777061;78;43443;-20
2021/03/12 23:31:26;;;;;;;3.23;1.23;;;;;;;4.00;100.00;97141.13;3738252;78;43537;-22
2021/03/12 23:36:35;;;;;;;3.17;1.10;;;;;;;3.98;100.00;97146.61;3716611;78;44099;-18
2021/03/12 23:41:41;;;;;;;1.67;0.70;;;;;;;3.96;100.00;97133.93;3742866;78;44075;-20
2021/03/12 23:46:47;;;;;;;1.17;0.80;;;;;;;4.12;100.00;97142.58;3773588;77;43287;-20
2021/03/12 23:51:53;;;;;;;1.07;0.67;;;;;;;4.13;100.00;97144.77;3745238;78;43266;-20
2021/03/12 23:56:59;;;;;;;1.23;0.70;;;;;;;4.13;100.00;97154.09;3770940;78;43446;-20
